Wednesday, June 20, 2018, 5:12 PM EDT
Back to Local

KOFP, Hanover County Municipal

Location: Ashland, VA, United States Lat: 37.7
Local Time: 5:12 PM EDT (21:12 GMT) Lon: -77.433
Time Zone: US/Eastern Elev: 203 ft

Show me the last for .
Show Decoded

2018-06-20 16:54 METAR KOFP 202054Z AUTO 12007KT 10SM SCT039 BKN046 BKN055 28/26 A2981 RMK AO2
                 LTG DSNT ALQDS RAB09E26 SLP090 P0004 60004 T02780256 56015 =
2018-06-20 16:07 METAR KOFP 202007Z AUTO 25009KT 8SM VCTS BKN037 BKN045 28/24 A2982 RMK AO2 LTG
                 DSNT SE-SW T02780244 =
2018-06-20 15:54 METAR KOFP 201954Z AUTO 00000KT 8SM FEW037 28/26 A2981 RMK AO2 LTG DSNT S AND SW
                 SLP091 T02780256 =
2018-06-20 14:54 METAR KOFP 201854Z AUTO 25004KT 10SM BKN038 BKN046 31/22 A2982 RMK AO2 SLP095
                 T03060222 =
2018-06-20 13:54 METAR KOFP 201754Z AUTO VRB05KT 10SM BKN032 BKN080 30/23 A2985 RMK AO2 SLP105
                 T03000233 10306 20244 58017 =
2018-06-20 12:54 METAR KOFP 201654Z AUTO VRB03KT 10SM SCT032 BKN080 30/22 A2987 RMK AO2 SLP112
                 T03000222 =
2018-06-20 11:54 METAR KOFP 201554Z AUTO VRB03KT 10SM FEW075 29/22 A2989 RMK AO2 SLP118 T02940222
                 =
2018-06-20 10:54 METAR KOFP 201454Z AUTO 08003KT 10SM CLR 29/22 A2990 RMK AO2 SLP122 T02890217
                 58001 =
2018-06-20 09:54 METAR KOFP 201354Z AUTO 10003KT 10SM CLR 26/22 A2989 RMK AO2 SLP120 T02610222 =
2018-06-20 08:54 METAR KOFP 201254Z AUTO 00000KT 10SM FEW049 BKN060 25/23 A2991 RMK AO2 SLP125
                 T02500228 =
2018-06-20 07:54 METAR KOFP 201154Z AUTO VRB03KT 10SM CLR 24/23 A2990 RMK AO2 SLP123 6//// 7////
                 T02440233 10244 20217 $ =
2018-06-20 06:54 METAR KOFP 201054Z AUTO 00000KT 6SM BR CLR 23/23 A2989 RMK AO2 SLP120 T02280228
                 $ =
2018-06-20 06:30 METAR KOFP 201030Z AUTO 00000KT 3SM BR CLR 22/22 A2989 RMK AO2 T02220222 $ =
2018-06-20 06:28 METAR KOFP 201028Z AUTO 00000KT 1 1/2SM BR FEW003 22/22 A2989 RMK AO2 T02170217
                 $ =
2018-06-20 06:25 METAR KOFP 201025Z AUTO 00000KT 1SM BR VV003 22/22 A2989 RMK AO2 T02170217 $ =
2018-06-20 06:04 METAR KOFP 201004Z AUTO 00000KT 1/4SM FG 22/22 A2988 RMK AO2 T02170217 $ =
2018-06-20 05:57 METAR KOFP 200957Z AUTO 00000KT 1 1/4SM BR 22/ A2988 RMK AO2 T0217 $ =
2018-06-20 05:54 METAR KOFP 200954Z AUTO 00000KT 22/ A2988 RMK AO2 SLP115 T0217 $ =
2018-06-20 05:29 METAR KOFP 200929Z AUTO 00000KT 2SM BR CLR 22/22 A2988 RMK AO2 VIS 1V5 T02170217
                 =
2018-06-20 05:06 METAR KOFP 200906Z AUTO 31003KT 3SM BR CLR 22/22 A2988 RMK AO2 T02220222 =
2018-06-20 04:54 METAR KOFP 200854Z AUTO 00000KT 1 1/2SM BR FEW002 22/22 A2988 RMK AO2 SLP114
                 T02170217 51002 =
2018-06-20 04:51 METAR KOFP 200851Z AUTO 00000KT 1 1/2SM BR FEW002 22/22 A2988 RMK AO2 =
2018-06-20 04:49 METAR KOFP 200849Z AUTO 00000KT 3SM BR SCT002 22/22 A2988 RMK AO2 =
2018-06-20 04:24 METAR KOFP 200824Z AUTO 00000KT 3SM BR OVC002 22/22 A2988 RMK AO2 T02220222 =
2018-06-20 04:10 METAR KOFP 200810Z AUTO 31003KT 1 3/4SM BR OVC002 22/22 A2988 RMK AO2 T02220222
                 =
2018-06-20 03:54 METAR KOFP 200754Z AUTO 30003KT 4SM BR OVC002 22/22 A2988 RMK AO2 SLP116
                 T02220222 =
2018-06-20 03:52 METAR KOFP 200752Z AUTO 31003KT 3SM BR OVC002 22/22 A2988 RMK AO2 =
2018-06-20 03:49 METAR KOFP 200749Z AUTO 31003KT 1 1/2SM BR OVC002 22/22 A2988 RMK AO2 =
2018-06-20 02:54 METAR KOFP 200654Z AUTO 00000KT 3/4SM BR VV002 23/23 A2987 RMK AO2 SLP113
                 T02280228 =
2018-06-20 02:36 METAR KOFP 200636Z AUTO 00000KT 1 1/4SM BR OVC002 23/23 A2988 RMK AO2 T02280228
                 =
2018-06-20 02:24 METAR KOFP 200624Z AUTO 28003KT 1 3/4SM BR OVC002 23/23 A2989 RMK AO2 T02280228
                 =
2018-06-20 02:07 METAR KOFP 200607Z AUTO 27003KT 5SM BR BKN003 23/23 A2989 RMK AO2 T02280228 =
2018-06-20 01:54 METAR KOFP 200554Z AUTO 27003KT 8SM FEW003 23/23 A2989 RMK AO2 SLP119 6////
                 T02280228 10239 20228 50000 =
2018-06-20 00:54 METAR KOFP 200454Z AUTO 00000KT 6SM BR SCT004 23/23 A2990 RMK AO2 SLP121
                 T02280228 403560228 =
2018-06-20 00:43 METAR KOFP 200443Z AUTO 00000KT 7SM BKN003 23/23 A2990 RMK AO2 T02330233 =
2018-06-19 23:54 METAR KOFP 200354Z AUTO 00000KT 7SM FEW003 23/23 A2989 RMK AO2 SLP118 T02330233
                 =
2018-06-19 22:54 METAR KOFP 200254Z AUTO 00000KT 9SM FEW004 24/23 A2990 RMK AO2 SLP122 6////
                 T02390233 =
2018-06-19 22:22 METAR KOFP 200222Z AUTO 28004KT 10SM FEW004 24/24 A2990 RMK AO2 T02390239 =
2018-06-19 21:54 METAR KOFP 200154Z AUTO 29005KT 10SM FEW100 24/24 A2990 RMK AO2 RAB31E46 SLP122
                 P0000 T02390239 $ =
2018-06-19 21:24 METAR KOFP 200124Z AUTO 29003KT 9SM FEW004 SCT060 SCT085 24/24 A2990 RMK AO2
                 T02390239 $ =
2018-06-19 20:54 METAR KOFP 200054Z AUTO 30004KT 24/ A2990 RMK AO2 TSE00 SLP123 T0239 PWINO $ =
2018-06-19 18:54 METAR KOFP 192254Z AUTO 00000KT 8SM -TSRA FEW046 BKN060 BKN075 24/23 A2987 RMK
                 AO2 LTG DSNT ALQDS RAE18B28 SLP113 P0038 T02390233 $ =
2018-06-19 18:51 METAR KOFP 192251Z AUTO 00000KT 3SM -TSRA BR SCT048 BKN065 OVC120 24/23 A2986
                 RMK AO2 LTG DSNT ALQDS RAE18B28 P0038 $ =
2018-06-19 18:47 METAR KOFP 192247Z AUTO 00000KT 1 3/4SM +TSRA BR SCT048 BKN060 OVC075 24/23
                 A2987 RMK AO2 VIS 3/4V5 LTG DSNT ALQDS RAE18B28 P0038 T02390233 $ =
2018-06-19 18:42 METAR KOFP 192242Z AUTO VRB03KT 3/4SM +TSRA BR FEW008 BKN045 OVC060 24/23 A2987
                 RMK AO2 VIS 1/2V3 LTG DSNT ALQDS RAE18B28 P0037 T02390233 $ =
2018-06-19 18:36 METAR KOFP 192236Z AUTO 28003KT 1 1/2SM +TSRA BR FEW008 SCT043 OVC065 24/23
                 A2988 RMK AO2 VIS 1/2V5 LTG DSNT ALQDS RAE18B28 P0030 T02390228 $ =
2018-06-19 18:23 METAR KOFP 192223Z AUTO VRB06KT 10SM TS FEW008 BKN033 OVC060 24/23 A2987 RMK AO2
                 LTG DSNT ALQDS RAE18 P0021 T02390233 $ =
2018-06-19 18:13 METAR KOFP 192213Z AUTO VRB05KT 4SM -TSRA BR FEW010 BKN034 OVC075 24/23 A2986
                 RMK AO2 LTG DSNT ALQDS P0021 T02390233 $ =
2018-06-19 18:10 METAR KOFP 192210Z AUTO VRB03KT 1 1/2SM -TSRA BR 24/23 A2986 RMK AO2 LTG DSNT
                 ALQDS P0021 T02390233 $ =
2018-06-19 17:54 METAR KOFP 192154Z AUTO 34008G16KT 3/4SM +TSRA BR 24/23 A2987 RMK AO2 LTG DSNT
                 NW-E RAB51 TSB43 SLP112 P0005 T02390233 $ =
2018-06-19 17:43 METAR KOFP 192143Z AUTO TS RMK AO2 LTG DSNT NW-E TSB43 $ =
2018-06-19 17:38 METAR KOFP 192138Z AUTO 36011G27KT 330V040 8SM VCTS FEW028 BKN060 BKN075 28/23
                 A2983 RMK AO2 PK WND 03027/2135 LTG DSNT NW-E PRESRR T02830228 =

Support USWX by starting your Amazon purchase here.